createdAt,value
2018-07-28T00:02:01.003Z,8.50
2018-07-28T00:04:29.485Z,8.03
2018-07-28T00:06:57.925Z,7.53
2018-07-28T00:09:26.404Z,7.63
2018-07-28T00:11:54.892Z,7.47
2018-07-28T00:14:23.410Z,7.20
2018-07-28T00:16:51.899Z,7.60
2018-07-28T00:19:20.381Z,7.80
2018-07-28T00:21:48.798Z,8.03
2018-07-28T00:24:17.308Z,7.63
2018-07-28T00:26:45.726Z,9.40
2018-07-28T00:29:14.170Z,8.80
2018-07-28T00:31:55.234Z,8.37
2018-07-28T00:34:23.738Z,8.63
2018-07-28T00:36:52.140Z,8.43
2018-07-28T00:39:20.558Z,8.47
2018-07-28T00:41:49.022Z,8.27
2018-07-28T00:44:17.462Z,7.77
2018-07-28T00:46:45.940Z,7.70
2018-07-28T00:49:14.422Z,7.70
2018-07-28T00:51:42.846Z,8.10
2018-07-28T00:54:11.336Z,8.20
2018-07-28T00:56:39.799Z,7.77
2018-07-28T00:59:08.202Z,8.30
2018-07-28T01:01:36.635Z,8.00
2018-07-28T01:04:05.055Z,7.60
2018-07-28T01:06:33.499Z,8.43
2018-07-28T01:09:01.890Z,8.37
2018-07-28T01:11:30.480Z,8.30
2018-07-28T01:13:58.888Z,8.30
2018-07-28T01:16:27.377Z,8.50
2018-07-28T01:18:55.819Z,8.43
2018-07-28T01:21:24.300Z,9.30
2018-07-28T01:23:52.733Z,7.80
2018-07-28T01:26:21.197Z,8.87
2018-07-28T01:28:53.880Z,8.50
2018-07-28T01:31:22.282Z,8.23
2018-07-28T01:33:50.758Z,8.70
2018-07-28T01:36:19.245Z,8.27
2018-07-28T01:38:47.664Z,8.50
2018-07-28T01:41:16.319Z,8.47
2018-07-28T01:43:44.784Z,9.00
2018-07-28T01:46:13.267Z,8.30
2018-07-28T01:48:41.980Z,8.47
2018-07-28T01:51:10.358Z,8.70
2018-07-28T01:53:38.813Z,8.27
2018-07-28T01:56:07.675Z,8.53
2018-07-28T01:58:36.204Z,7.70
2018-07-28T02:01:04.613Z,7.47
2018-07-28T02:03:33.054Z,8.53
2018-07-28T02:06:01.603Z,9.03
2018-07-28T02:08:30.106Z,8.73
2018-07-28T02:10:59.066Z,9.27
2018-07-28T02:13:27.553Z,10.17
2018-07-28T02:15:56.041Z,9.73
2018-07-28T02:18:24.505Z,9.13
2018-07-28T02:20:52.891Z,9.83
2018-07-28T02:23:21.347Z,8.50
2018-07-28T02:25:49.751Z,7.87
2018-07-28T02:28:18.214Z,8.68
2018-07-28T02:30:46.653Z,7.63
2018-07-28T02:33:15.111Z,8.07
2018-07-28T02:35:43.521Z,7.30
2018-07-28T02:38:11.975Z,7.42
2018-07-28T02:40:40.421Z,7.17
2018-07-28T02:43:09.225Z,7.40
2018-07-28T02:45:37.692Z,7.75
2018-07-28T02:48:06.349Z,7.60
2018-07-28T02:50:34.781Z,7.55
2018-07-28T02:53:03.428Z,7.80
2018-07-28T02:55:31.921Z,8.40
2018-07-28T02:58:00.745Z,7.40
2018-07-28T03:00:29.558Z,6.72
2018-07-28T03:02:58.128Z,7.03
2018-07-28T03:05:26.653Z,7.20
2018-07-28T03:07:55.235Z,6.90
2018-07-28T03:10:23.872Z,7.03
2018-07-28T03:12:52.365Z,7.00
2018-07-28T03:15:34.442Z,6.87
2018-07-28T03:18:04.029Z,7.35
2018-07-28T03:20:32.722Z,7.03
2018-07-28T03:23:02.122Z,6.92
2018-07-28T03:25:30.674Z,7.90
2018-07-28T03:27:59.718Z,7.35
2018-07-28T03:30:28.506Z,7.22
2018-07-28T03:32:57.314Z,6.72
2018-07-28T03:35:26.032Z,7.00
2018-07-28T03:37:54.564Z,6.85
2018-07-28T03:55:12.046Z,6.03
2018-07-28T03:57:40.708Z,7.15
2018-07-28T04:00:11.092Z,7.62
2018-07-28T04:02:39.976Z,7.15
2018-07-28T04:05:10.412Z,7.30
2018-07-28T04:07:39.355Z,7.78
2018-07-28T04:10:08.703Z,7.58
2018-07-28T04:12:37.511Z,6.90
2018-07-28T04:15:08.631Z,7.58
2018-07-28T04:17:44.357Z,7.80
2018-07-28T04:20:13.237Z,7.28
2018-07-28T04:22:41.887Z,7.15
2018-07-28T04:25:10.586Z,7.45
2018-07-28T04:27:39.333Z,7.37
2018-07-28T04:30:08.569Z,6.50
2018-07-28T04:32:37.357Z,6.83
2018-07-28T04:35:06.361Z,7.72
2018-07-28T04:37:35.403Z,6.65
2018-07-28T04:40:04.231Z,7.50
2018-07-28T04:42:32.864Z,7.35
2018-07-28T04:45:02.320Z,7.20
2018-07-28T04:47:31.107Z,6.85
2018-07-28T04:50:00.049Z,7.20
2018-07-28T04:52:29.647Z,7.50
2018-07-28T04:54:58.853Z,8.10
2018-07-28T04:57:27.606Z,7.53
2018-07-28T04:59:56.540Z,9.43
2018-07-28T05:02:26.706Z,8.93
2018-07-28T05:04:56.047Z,8.75
2018-07-28T05:07:25.058Z,9.30
2018-07-28T05:09:53.687Z,9.78
2018-07-28T05:12:22.268Z,9.23
2018-07-28T05:14:50.946Z,9.15
2018-07-28T05:17:19.541Z,8.75
2018-07-28T05:19:48.073Z,8.43
2018-07-28T05:22:16.559Z,8.08
2018-07-28T05:24:45.077Z,8.30
2018-07-28T05:27:13.639Z,8.03
2018-07-28T05:29:42.310Z,8.70
2018-07-28T05:32:10.799Z,8.40
2018-07-28T05:34:39.362Z,9.28
2018-07-28T05:37:07.886Z,10.85
2018-07-28T05:39:36.431Z,10.00
2018-07-28T05:42:05.009Z,9.90
2018-07-28T05:44:33.445Z,11.30
2018-07-28T05:47:02.108Z,12.68
2018-07-28T05:49:30.632Z,15.83
2018-07-28T05:51:59.082Z,13.62
2018-07-28T05:54:27.530Z,14.20
2018-07-28T05:56:55.984Z,15.98
2018-07-28T05:59:24.432Z,14.78
2018-07-28T06:01:53.038Z,13.80
2018-07-28T06:04:21.524Z,14.28
2018-07-28T06:06:50.010Z,14.25
2018-07-28T06:09:18.456Z,13.83
2018-07-28T06:11:46.914Z,13.80
2018-07-28T06:14:15.421Z,12.23
2018-07-28T06:16:43.846Z,13.32
2018-07-28T06:19:12.265Z,12.65
2018-07-28T06:21:40.728Z,13.45
2018-07-28T06:24:09.181Z,14.60
2018-07-28T06:26:37.675Z,13.65
2018-07-28T06:29:06.141Z,12.68
2018-07-28T06:31:34.714Z,12.20
2018-07-28T06:36:36.383Z,12.25
2018-07-28T06:39:08.542Z,12.18
2018-07-28T06:41:37.067Z,11.30
2018-07-28T06:44:07.371Z,9.93
2018-07-28T06:46:36.499Z,10.60
2018-07-28T06:49:05.775Z,9.70
2018-07-28T06:51:35.731Z,9.28
2018-07-28T06:54:04.927Z,9.03
2018-07-28T06:56:34.737Z,9.18
2018-07-28T06:59:03.735Z,8.50
2018-07-28T07:01:34.643Z,8.95
2018-07-28T07:04:03.281Z,8.55
2018-07-28T07:06:31.755Z,9.53
2018-07-28T07:09:00.877Z,8.90
2018-07-28T07:11:29.563Z,9.13
2018-07-28T07:13:58.709Z,8.75
2018-07-28T07:16:27.206Z,9.25
2018-07-28T07:18:55.715Z,9.55
2018-07-28T07:21:24.313Z,8.63
2018-07-28T07:23:52.820Z,8.38
2018-07-28T07:26:21.350Z,8.70
2018-07-28T07:28:49.787Z,7.85
2018-07-28T07:31:18.325Z,8.15
2018-07-28T07:33:46.810Z,8.45
2018-07-28T07:36:15.397Z,8.83
2018-07-28T07:38:43.914Z,8.05
2018-07-28T07:41:12.412Z,8.35
2018-07-28T07:43:41.018Z,8.53
2018-07-28T07:46:09.546Z,8.85
2018-07-28T07:48:38.246Z,8.98
2018-07-28T07:51:06.723Z,12.00
2018-07-28T07:53:35.252Z,8.75
2018-07-28T07:56:03.832Z,7.33
2018-07-28T07:58:34.721Z,7.50
2018-07-28T08:01:04.160Z,6.95
2018-07-28T08:03:37.854Z,6.65
2018-07-28T08:06:07.482Z,7.17
2018-07-28T08:08:36.826Z,7.33
2018-07-28T08:11:06.307Z,5.90
2018-07-28T08:16:32.020Z,5.25
2018-07-28T08:19:02.452Z,5.90
2018-07-28T08:21:32.101Z,5.40
2018-07-28T08:24:05.506Z,4.80
2018-07-28T08:26:34.360Z,4.87
2018-07-28T08:29:03.188Z,4.40
2018-07-28T08:31:32.066Z,4.12
2018-07-28T08:34:01.091Z,4.60
2018-07-28T08:36:29.939Z,4.37
2018-07-28T08:38:58.935Z,4.12
2018-07-28T08:41:28.036Z,4.12
2018-07-28T08:43:59.118Z,5.05
2018-07-28T08:46:28.048Z,4.12
2018-07-28T08:48:57.605Z,4.42
2018-07-28T08:51:26.412Z,4.53
2018-07-28T08:53:55.200Z,4.28
2018-07-28T08:56:24.182Z,4.78
2018-07-28T08:58:53.185Z,4.62
2018-07-28T09:01:23.324Z,4.50
2018-07-28T09:03:51.909Z,4.35
2018-07-28T09:06:20.508Z,4.92
2018-07-28T09:08:49.500Z,5.12
2018-07-28T09:11:26.271Z,5.75
2018-07-28T09:13:54.943Z,5.10
2018-07-28T09:16:23.575Z,5.20
2018-07-28T09:18:52.380Z,5.35
2018-07-28T09:21:21.006Z,5.45
2018-07-28T09:23:49.735Z,5.80
2018-07-28T09:26:18.248Z,5.35
2018-07-28T09:28:47.881Z,6.10
2018-07-28T09:31:16.525Z,6.08
2018-07-28T09:33:45.088Z,6.42
2018-07-28T09:36:15.074Z,6.53
2018-07-28T09:38:44.159Z,7.20
2018-07-28T09:41:53.923Z,6.53
2018-07-28T09:44:22.555Z,5.72
2018-07-28T09:46:51.165Z,6.85
2018-07-28T09:49:19.652Z,5.80
2018-07-28T09:51:48.643Z,6.05
2018-07-28T09:54:17.153Z,6.08
2018-07-28T09:56:45.678Z,6.83
2018-07-28T09:59:14.283Z,6.37
2018-07-28T10:01:42.840Z,6.75
2018-07-28T10:04:11.760Z,5.83
2018-07-28T10:09:17.521Z,6.30
2018-07-28T10:11:46.138Z,6.22
2018-07-28T10:14:14.934Z,5.67
2018-07-28T10:16:43.422Z,6.00
2018-07-28T10:19:12.190Z,5.85
2018-07-28T10:21:40.936Z,6.40
2018-07-28T10:24:09.818Z,7.35
2018-07-28T10:26:38.619Z,6.47
2018-07-28T10:29:09.045Z,6.62
2018-07-28T10:31:37.793Z,6.92
2018-07-28T10:34:06.463Z,6.83
2018-07-28T10:36:35.186Z,7.30
2018-07-28T10:39:06.276Z,7.08
2018-07-28T10:41:34.900Z,6.40
2018-07-28T10:44:03.571Z,6.65
2018-07-28T10:46:32.254Z,5.92
2018-07-28T10:49:00.866Z,6.33
2018-07-28T10:51:29.412Z,6.83
2018-07-28T10:53:57.926Z,7.15
2018-07-28T10:56:26.490Z,6.45
2018-07-28T10:58:55.046Z,7.40
2018-07-28T11:01:23.635Z,7.45
2018-07-28T11:03:52.279Z,7.33
2018-07-28T11:06:20.879Z,7.40
2018-07-28T11:08:49.394Z,6.95
2018-07-28T11:11:17.991Z,6.95
2018-07-28T11:13:46.568Z,7.00
2018-07-28T11:16:15.120Z,6.85
2018-07-28T11:18:43.731Z,6.20
2018-07-28T11:21:12.375Z,6.37
2018-07-28T11:23:57.047Z,6.65
2018-07-28T11:26:25.654Z,6.53
2018-07-28T11:28:54.463Z,6.83
2018-07-28T11:31:34.777Z,6.83
2018-07-28T11:34:14.483Z,6.62
2018-07-28T11:36:54.817Z,8.48
2018-07-28T11:39:34.796Z,8.05
2018-07-28T11:42:14.393Z,7.17
2018-07-28T11:45:08.020Z,5.92
2018-07-28T11:47:36.471Z,5.40
2018-07-28T11:50:05.035Z,5.28
2018-07-28T11:52:33.574Z,5.37
2018-07-28T11:55:02.709Z,5.40
2018-07-28T11:57:31.207Z,4.92
2018-07-28T11:59:59.869Z,4.90
2018-07-28T12:02:28.418Z,4.25
2018-07-28T12:04:57.035Z,6.42
2018-07-28T12:07:25.597Z,4.20
2018-07-28T12:09:54.233Z,4.45
2018-07-28T12:12:22.844Z,4.15
2018-07-28T12:14:52.283Z,4.33
2018-07-28T12:17:21.224Z,4.40
2018-07-28T12:19:50.280Z,3.98
2018-07-28T12:22:18.900Z,3.95
2018-07-28T12:24:47.511Z,4.50
2018-07-28T12:27:16.119Z,4.10
2018-07-28T12:29:44.650Z,4.28
2018-07-28T12:32:13.280Z,6.58
2018-07-28T12:34:42.013Z,4.50
2018-07-28T12:37:10.459Z,4.15
2018-07-28T12:39:39.090Z,4.37
2018-07-28T12:42:07.711Z,4.25
2018-07-28T12:44:36.263Z,4.10
2018-07-28T12:47:04.786Z,4.30
2018-07-28T12:49:33.289Z,4.92
2018-07-28T12:52:01.788Z,4.22
2018-07-28T12:54:30.272Z,4.65
2018-07-28T12:56:58.815Z,4.33
2018-07-28T12:59:27.728Z,4.90
2018-07-28T13:01:56.285Z,4.72
2018-07-28T13:13:03.462Z,4.90
2018-07-28T13:15:43.001Z,4.55
2018-07-28T13:18:38.112Z,4.95
2018-07-28T13:26:11.762Z,4.62
2018-07-28T13:29:51.076Z,5.67
2018-07-28T13:32:34.181Z,5.20
2018-07-28T13:35:36.664Z,4.72
2018-07-28T13:46:04.149Z,4.97
2018-07-28T13:52:11.614Z,5.67
2018-07-28T14:04:11.371Z,4.37
2018-07-28T14:10:05.895Z,3.52
2018-07-28T17:19:08.921Z,2.83
2018-07-28T17:29:34.262Z,3.10
2018-07-28T17:36:03.844Z,3.40
2018-07-28T17:38:40.210Z,2.92
2018-07-28T17:41:13.504Z,2.92
2018-07-28T17:43:59.105Z,3.20
2018-07-28T17:55:07.043Z,3.00
2018-07-28T17:58:12.872Z,2.70
2018-07-28T18:00:49.869Z,2.35
2018-07-28T18:03:21.555Z,2.40
2018-07-28T18:06:20.624Z,2.33
2018-07-28T18:12:49.475Z,2.20
2018-07-28T18:21:08.289Z,2.17
2018-07-28T18:50:11.943Z,2.33
2018-07-28T18:52:42.835Z,2.05
2018-07-28T18:55:11.780Z,2.10
2018-07-28T18:57:45.346Z,2.30
2018-07-28T19:00:16.055Z,2.30
2018-07-28T19:02:45.397Z,2.80
2018-07-28T19:05:29.162Z,2.95
2018-07-28T19:07:58.931Z,2.45
2018-07-28T19:10:53.100Z,2.27
2018-07-28T19:23:44.425Z,2.70
2018-07-28T19:26:56.348Z,3.12
2018-07-28T19:29:37.817Z,3.65
2018-07-28T19:32:12.514Z,4.12
2018-07-28T19:40:54.804Z,2.80
2018-07-28T19:43:31.252Z,2.95
2018-07-28T19:48:50.725Z,2.30
2018-07-28T19:51:34.851Z,1.90
2018-07-28T19:59:10.968Z,2.50
2018-07-28T20:01:39.619Z,2.10
2018-07-28T20:04:30.714Z,2.70
2018-07-28T20:07:06.120Z,2.60
2018-07-28T20:13:13.552Z,2.35
2018-07-28T20:30:12.744Z,2.50
2018-07-28T20:43:31.334Z,3.40
2018-07-28T20:50:50.932Z,3.67
2018-07-28T21:17:45.989Z,3.58
2018-07-28T21:29:14.219Z,2.60
2018-07-28T21:35:41.299Z,2.65
2018-07-28T21:49:23.698Z,2.75
2018-07-28T22:26:54.165Z,3.20
2018-07-28T22:29:35.507Z,3.30
2018-07-28T22:32:29.042Z,3.33
2018-07-28T22:40:08.649Z,3.40
2018-07-28T22:42:54.909Z,3.25
2018-07-28T22:51:19.147Z,3.30
2018-07-28T22:54:52.911Z,3.03
2018-07-28T22:57:25.623Z,3.50
2018-07-28T23:03:10.773Z,4.03
2018-07-28T23:08:50.719Z,3.13
2018-07-28T23:17:18.279Z,3.80
2018-07-28T23:19:49.373Z,3.20
2018-07-28T23:22:28.689Z,3.60
2018-07-28T23:26:32.845Z,3.33
2018-07-28T23:29:21.291Z,3.40
2018-07-28T23:32:02.219Z,3.60
